WXM80 ListenWXM80 Stop

You find our weather info also at:

UK Metoffice

WeatherCloud

Weather Underground

Northeastern Weather Network

AWEKAS

Citizen Weather Observer Program (CWOP)

HAMweather, WeatherForYou, PWS Weather


Weather Underground History page Text

Daily Summary for April 16, 2017 Units:  Metric    English   Both
« Previous Day
Next Day »
Daily Weekly Monthly Yearly Custom
  High: Low: Average:
Temperature: 30.7 °C 12.8 °C 21.3 °C
Dew Point: 16.6 °C 11.5 °C 14.1 °C
Humidity: 96 % 35 % 68 %
Wind Speed: 18 km/h 0 km/h 7.2 km/h
Wind Gust: 33.3 km/h - -
Wind:- - SW
Pressure: 1017.2 hPa 1006 hPa -
Precipitation: 0 mm    
Historical Graphs
 
 
Tabular Data for April 16, 2017
Time Temperature Dew Point Pressure Wind Wind Speed Wind Gust Humidity Rainfall Rate (Hourly)
00:04 13.2 °C 11.6 °C 1017.2 hPa SSW 7.2 km/h 7.4 km/h 90 % 0 mm
00:09 13.2 °C 11.6 °C 1017.2 hPa SW 6.8 km/h 11.1 km/h 90 % 0 mm
00:14 13.2 °C 11.7 °C 1017.2 hPa SSW 9.2 km/h 14.8 km/h 91 % 0 mm
00:19 13.2 °C 11.8 °C 1016.8 hPa SSW 8.9 km/h 13 km/h 91 % 0 mm
00:24 13.2 °C 11.8 °C 1016.5 hPa SSW 4.7 km/h 13 km/h 91 % 0 mm
00:29 13.2 °C 11.8 °C 1016.8 hPa WSW 6.9 km/h 16.7 km/h 91 % 0 mm
00:34 13.2 °C 11.8 °C 1016.5 hPa South 5.6 km/h 9.3 km/h 91 % 0 mm
00:40 13.2 °C 11.8 °C 1016.5 hPa SSW 6.9 km/h 13 km/h 91 % 0 mm
00:45 13.2 °C 11.8 °C 1016.5 hPa WSW 1.9 km/h 5.6 km/h 91 % 0 mm
00:50 13.2 °C 11.8 °C 1016.5 hPa SW 5.8 km/h 8 km/h 91 % 0 mm
00:55 13.2 °C 11.8 °C 1016.5 hPa SSW 1.9 km/h 7.4 km/h 91 % 0 mm
01:00 13.2 °C 11.7 °C 1016.1 hPa SSW 8.2 km/h 14.8 km/h 91 % 0 mm
01:05 13.2 °C 11.9 °C 1016.5 hPa SW 4.7 km/h 7.4 km/h 92 % 0 mm
01:10 13.2 °C 11.9 °C 1016.1 hPa SW 7.7 km/h 9.7 km/h 92 % 0 mm
01:15 13.2 °C 11.9 °C 1016.5 hPa WSW 3.2 km/h 9.3 km/h 92 % 0 mm
01:20 13.2 °C 11.9 °C 1016.1 hPa SSW 4.5 km/h 5.6 km/h 92 % 0 mm
01:25 13.2 °C 11.9 °C 1016.1 hPa SSW 3.5 km/h 6.4 km/h 92 % 0 mm
01:30 13.1 °C 11.8 °C 1016.1 hPa SSW 1.4 km/h 7.4 km/h 92 % 0 mm
01:35 13.1 °C 11.8 °C 1016.1 hPa SSW 4.3 km/h 5.6 km/h 92 % 0 mm
01:40 13.1 °C 11.8 °C 1016.1 hPa SW 3.1 km/h 5.6 km/h 92 % 0 mm
01:45 13.1 °C 11.8 °C 1015.8 hPa SSW 3.7 km/h 4.8 km/h 92 % 0 mm
01:50 13.1 °C 11.8 °C 1015.8 hPa SSW 1.3 km/h 3.7 km/h 92 % 0 mm
01:55 13.1 °C 11.8 °C 1015.8 hPa SSW 3.4 km/h 5.6 km/h 92 % 0 mm
02:00 13.1 °C 11.8 °C 1015.8 hPa SSW 2.6 km/h 6.4 km/h 92 % 0 mm
02:05 13 °C 11.7 °C 1015.8 hPa Calm   3.7 km/h 92 % 0 mm
02:10 13 °C 11.7 °C 1015.8 hPa SW 0.2 km/h 1.9 km/h 92 % 0 mm
02:15 13 °C 11.7 °C 1015.8 hPa Calm   1.6 km/h 92 % 0 mm
02:20 12.9 °C 11.7 °C 1015.5 hPa Calm     92 % 0 mm
02:25 12.9 °C 11.6 °C 1015.5 hPa Calm   1.9 km/h 92 % 0 mm
02:30 12.8 °C 11.6 °C 1015.5 hPa SW 0.6 km/h 1.9 km/h 92 % 0 mm
02:35 12.8 °C 11.6 °C 1015.5 hPa Calm   1.6 km/h 92 % 0 mm
02:40 12.8 °C 11.5 °C 1015.5 hPa SSW 1.1 km/h 8 km/h 92 % 0 mm
02:45 12.8 °C 11.7 °C 1015.5 hPa SSW 6.8 km/h 7.4 km/h 93 % 0 mm
02:50 12.8 °C 11.7 °C 1015.5 hPa WSW 1.6 km/h 3.7 km/h 93 % 0 mm
02:55 12.8 °C 11.9 °C 1015.5 hPa SW 5.1 km/h 9.3 km/h 94 % 0 mm
03:00 12.9 °C 12 °C 1015.5 hPa SSW 7.4 km/h 13 km/h 94 % 0 mm
03:05 13 °C 12.1 °C 1015.1 hPa WSW 6.8 km/h 11.1 km/h 94 % 0 mm
03:10 13.1 °C 12.1 °C 1015.1 hPa SSW 9.3 km/h 16.7 km/h 94 % 0 mm
03:15 13.2 °C 12.4 °C 1015.1 hPa SSW 8 km/h 11.3 km/h 95 % 0 mm
03:20 13.2 °C 12.4 °C 1014.8 hPa SW 8.7 km/h 16.7 km/h 95 % 0 mm
03:25 13.3 °C 12.5 °C 1014.8 hPa SSW 5.1 km/h 11.1 km/h 95 % 0 mm
03:30 13.3 °C 12.5 °C 1014.8 hPa SW 10.3 km/h 14.8 km/h 95 % 0 mm
03:35 13.3 °C 12.6 °C 1014.8 hPa SW 5.6 km/h 9.3 km/h 95 % 0 mm
03:40 13.4 °C 12.6 °C 1014.4 hPa SW 5.3 km/h 11.1 km/h 95 % 0 mm
03:45 13.4 °C 12.7 °C 1014.4 hPa SW 4.7 km/h 9.3 km/h 95 % 0 mm
03:50 13.5 °C 12.7 °C 1014.4 hPa SSW 6.4 km/h 13 km/h 95 % 0 mm
03:55 13.6 °C 12.8 °C 1014.4 hPa SSW 6.4 km/h 11.1 km/h 95 % 0 mm
04:00 13.6 °C 12.8 °C 1014.4 hPa SSW 7.2 km/h 11.1 km/h 95 % 0 mm
04:05 13.6 °C 12.8 °C 1014.4 hPa SW 5.3 km/h 9.3 km/h 95 % 0 mm
04:10 13.7 °C 12.9 °C 1014.1 hPa SW 4.3 km/h 7.4 km/h 95 % 0 mm
04:15 13.7 °C 12.9 °C 1014.1 hPa SW 5.1 km/h 7.4 km/h 95 % 0 mm
04:21 13.7 °C 12.9 °C 1014.1 hPa WSW 4.3 km/h 6.4 km/h 95 % 0 mm
04:26 13.8 °C 13 °C 1014.1 hPa SSW 6.1 km/h 9.3 km/h 95 % 0 mm
04:31 13.8 °C 13.1 °C 1014.1 hPa SSW 4.8 km/h 7.4 km/h 95 % 0 mm
04:36 13.8 °C 13.1 °C 1014.1 hPa SW 5.1 km/h 9.3 km/h 95 % 0 mm
04:41 13.8 °C 13.1 °C 1014.1 hPa WSW 2.3 km/h 5.6 km/h 95 % 0 mm
04:46 13.8 °C 13.1 °C 1014.1 hPa SW 3.1 km/h 5.6 km/h 95 % 0 mm
04:51 13.8 °C 13.1 °C 1014.1 hPa SW 2.9 km/h 7.4 km/h 95 % 0 mm
04:56 13.9 °C 13.1 °C 1014.1 hPa SW 5.3 km/h 6.4 km/h 95 % 0 mm
05:01 13.9 °C 13.1 °C 1014.1 hPa WSW 2.3 km/h 3.7 km/h 95 % 0 mm
05:06 13.8 °C 13.1 °C 1014.1 hPa SSW 2.7 km/h 5.6 km/h 95 % 0 mm
05:11 13.8 °C 13.1 °C 1014.1 hPa WSW 3.2 km/h 9.7 km/h 95 % 0 mm
05:16 13.8 °C 13.1 °C 1014.1 hPa SSW 4.2 km/h 7.4 km/h 95 % 0 mm
05:21 13.8 °C 13.1 °C 1014.1 hPa SW 1.6 km/h 7.4 km/h 95 % 0 mm
05:22 13.8 °C 13.1 °C 1014.1 hPa SW 4 km/h 6.4 km/h 95 % 0 mm
05:27 13.8 °C 13.1 °C 1014.1 hPa SSW 5.8 km/h 7.4 km/h 95 % 0 mm
05:32 13.8 °C 13.1 °C 1014.1 hPa SW 2.7 km/h 5.6 km/h 95 % 0 mm
05:37 13.8 °C 13.1 °C 1014.1 hPa SW 3.2 km/h 8 km/h 95 % 0 mm
05:42 13.8 °C 13.1 °C 1014.1 hPa SW 3.2 km/h 8 km/h 95 % 0 mm
05:47 13.9 °C 13.1 °C 1014.1 hPa SW 3.2 km/h 8 km/h 95 % 0 mm
05:52 13.9 °C 13.2 °C 1014.1 hPa SW 8 km/h 11.3 km/h 95 % 0 mm
05:57 14 °C 13.2 °C 1014.1 hPa SW 4.7 km/h 5.6 km/h 95 % 0 mm
06:02 14.1 °C 13.3 °C 1013.8 hPa SW 4.2 km/h 7.4 km/h 95 % 0 mm
06:07 14.1 °C 13.5 °C 1013.8 hPa SW 4.2 km/h 5.6 km/h 96 % 0 mm
06:12 14.2 °C 13.4 °C 1013.8 hPa WSW 4 km/h 9.3 km/h 95 % 0 mm
06:17 14.2 °C 13.4 °C 1013.8 hPa SSW 5.5 km/h 8 km/h 95 % 0 mm
06:22 14.2 °C 13.4 °C 1013.8 hPa SW 4.5 km/h 9.3 km/h 95 % 0 mm
06:27 14.3 °C 13.5 °C 1014.1 hPa SSW 6.3 km/h 11.1 km/h 95 % 0 mm
06:32 14.3 °C 13.7 °C 1014.1 hPa WSW 6 km/h 9.3 km/h 96 % 0 mm
06:37 14.4 °C 13.8 °C 1014.1 hPa WSW 4.7 km/h 9.3 km/h 96 % 0 mm
06:42 14.4 °C 13.7 °C 1014.1 hPa SSW 4.8 km/h 7.4 km/h 95 % 0 mm
06:47 14.5 °C 13.7 °C 1014.1 hPa SW 7.1 km/h 11.1 km/h 95 % 0 mm
06:52 14.6 °C 13.8 °C 1014.1 hPa SW 5.3 km/h 9.3 km/h 95 % 0 mm
06:57 14.7 °C 13.9 °C 1014.1 hPa SSW 5 km/h 7.4 km/h 95 % 0 mm
07:02 14.7 °C 13.9 °C 1014.1 hPa WSW 7.2 km/h 13 km/h 95 % 0 mm
07:08 14.9 °C 14.1 °C 1014.1 hPa SW 4.3 km/h 5.6 km/h 95 % 0 mm
07:13 15 °C 14.2 °C 1014.1 hPa SW 6.6 km/h 7.4 km/h 95 % 0 mm
07:18 15.2 °C 14.4 °C 1014.1 hPa WSW 7.7 km/h 9.3 km/h 95 % 0 mm
07:23 15.3 °C 14.5 °C 1014.1 hPa SSW 8 km/h 13 km/h 95 % 0 mm
07:28 15.5 °C 14.7 °C 1014.1 hPa SSW 4.8 km/h 9.7 km/h 95 % 0 mm
07:33 15.7 °C 14.9 °C 1013.8 hPa SSW 7.6 km/h 13 km/h 95 % 0 mm
07:38 15.9 °C 15 °C 1014.1 hPa SW 9.2 km/h 13 km/h 94 % 0 mm
07:43 16.2 °C 15.3 °C 1013.8 hPa SW 5.6 km/h 11.1 km/h 94 % 0 mm
07:48 16.5 °C 15.4 °C 1013.8 hPa WSW 7.7 km/h 11.3 km/h 93 % 0 mm
07:53 16.8 °C 15.4 °C 1013.8 hPa SSW 9.7 km/h 14.8 km/h 92 % 0 mm
07:58 17.1 °C 15.6 °C 1013.8 hPa SW 6.4 km/h 11.3 km/h 91 % 0 mm
08:03 17.3 °C 15.7 °C 1013.8 hPa SW 9.2 km/h 14.8 km/h 90 % 0 mm
08:08 17.7 °C 15.8 °C 1013.8 hPa SW 9.2 km/h 16.7 km/h 89 % 0 mm
08:13 17.9 °C 15.9 °C 1013.8 hPa SSW 7.4 km/h 13 km/h 88 % 0 mm
08:18 18.2 °C 16 °C 1013.8 hPa SSW 7.7 km/h 13 km/h 87 % 0 mm
08:23 18.6 °C 16 °C 1013.4 hPa SSW 8.5 km/h 13 km/h 85 % 0 mm
08:28 18.8 °C 16 °C 1013.4 hPa SW 10.1 km/h 17.7 km/h 84 % 0 mm
08:33 19.1 °C 16.1 °C 1013.4 hPa SSW 10.5 km/h 16.1 km/h 83 % 0 mm
08:38 19.3 °C 15.9 °C 1013.4 hPa SSW 11.4 km/h 14.8 km/h 81 % 0 mm
08:43 19.6 °C 16 °C 1013.4 hPa SW 11.9 km/h 18.5 km/h 80 % 0 mm
08:48 19.9 °C 16.3 °C 1013.4 hPa South 8.2 km/h 11.1 km/h 80 % 0 mm
08:53 20.3 °C 16.3 °C 1013.1 hPa SSW 10.5 km/h 13 km/h 78 % 0 mm
08:58 20.6 °C 16.4 °C 1013.4 hPa South 8.7 km/h 11.1 km/h 77 % 0 mm
09:03 21 °C 16.4 °C 1013.1 hPa SSW 6.9 km/h 9.7 km/h 75 % 0 mm
09:08 21.4 °C 16.3 °C 1013.4 hPa WSW 8.7 km/h 16.7 km/h 73 % 0 mm
09:13 21.7 °C 16.2 °C 1013.4 hPa West 8.9 km/h 14.8 km/h 71 % 0 mm
09:18 22.2 °C 16.2 °C 1013.1 hPa WSW 11.1 km/h 14.8 km/h 69 % 0 mm
09:24 22.6 °C 16.3 °C 1013.1 hPa SSW 5.1 km/h 9.3 km/h 68 % 0 mm
09:29 22.9 °C 16.3 °C 1013.1 hPa SSW 12.6 km/h 16.7 km/h 66 % 0 mm
09:34 23.3 °C 16.3 °C 1013.1 hPa WSW 7.2 km/h 14.5 km/h 65 % 0 mm
09:39 23.7 °C 16.5 °C 1013.1 hPa WNW 9.7 km/h 13 km/h 64 % 0 mm
09:44 24.1 °C 16.6 °C 1013.1 hPa WSW 5.8 km/h 13 km/h 63 % 0 mm
09:49 24.4 °C 16.4 °C 1013.1 hPa SSW 10.6 km/h 18.5 km/h 61 % 0 mm
09:54 24.8 °C 16.6 °C 1012.8 hPa WSW 3.7 km/h 14.8 km/h 60 % 0 mm
09:59 25.1 °C 16.2 °C 1013.1 hPa SW 9.3 km/h 19.3 km/h 58 % 0 mm
10:04 25 °C 15.9 °C 1013.1 hPa West 6.8 km/h 11.1 km/h 57 % 0 mm
10:09 24.8 °C 15.4 °C 1013.1 hPa NW 6.9 km/h 14.8 km/h 56 % 0 mm
10:14 24.8 °C 15.7 °C 1013.1 hPa WSW 13 km/h 25.9 km/h 57 % 0 mm
10:19 24.8 °C 15.4 °C 1012.8 hPa WSW 10.8 km/h 18.5 km/h 56 % 0 mm
10:24 24.8 °C 15.4 °C 1012.8 hPa SW 10.8 km/h 18.5 km/h 56 % 0 mm
10:29 24.8 °C 15.7 °C 1012.8 hPa WNW 6.9 km/h 18.5 km/h 57 % 0 mm
10:34 24.8 °C 15.7 °C 1012.8 hPa WSW 9 km/h 18.5 km/h 57 % 0 mm
10:39 24.9 °C 16.4 °C 1012.4 hPa SW 5.8 km/h 13 km/h 59 % 0 mm
10:45 25.2 °C 15.8 °C 1012.4 hPa SSW 7.9 km/h 18.5 km/h 56 % 0 mm
10:50 25.4 °C 16 °C 1012.4 hPa SSW 3.9 km/h 11.1 km/h 56 % 0 mm
10:55 25.6 °C 15.6 °C 1012.1 hPa SW 9 km/h 20.4 km/h 54 % 0 mm
11:00 25.7 °C 16.3 °C 1012.1 hPa West 5.5 km/h 9.3 km/h 56 % 0 mm
11:05 26.1 °C 15.7 °C 1012.1 hPa WSW 7.6 km/h 16.7 km/h 53 % 0 mm
11:10 26.4 °C 15.7 °C 1012.1 hPa WSW 9.5 km/h 18.5 km/h 52 % 0 mm
11:15 26.7 °C 15.4 °C 1012.1 hPa West 6.8 km/h 14.8 km/h 50 % 0 mm
11:20 26.9 °C 15.9 °C 1012.1 hPa WSW 10.9 km/h 14.8 km/h 51 % 0 mm
11:25 27.2 °C 15.5 °C 1012.1 hPa SW 12.1 km/h 24.1 km/h 49 % 0 mm
11:30 27.2 °C 15.6 °C 1012.1 hPa WSW 11.1 km/h 22.2 km/h 49 % 0 mm
11:35 27.3 °C 15.7 °C 1012.1 hPa WNW 10.9 km/h 20.4 km/h 49 % 0 mm
11:40 27.3 °C 15.7 °C 1011.7 hPa NW 6 km/h 22.2 km/h 49 % 0 mm
11:45 27.4 °C 15.1 °C 1011.7 hPa SW 12.6 km/h 25.9 km/h 47 % 0 mm
11:50 27.5 °C 15.5 °C 1011.7 hPa WSW 9.5 km/h 18.5 km/h 48 % 0 mm
11:55 27.4 °C 15.1 °C 1011.7 hPa WSW 11.7 km/h 18.5 km/h 47 % 0 mm
12:00 27.2 °C 14.9 °C 1011.7 hPa WSW 8.7 km/h 13 km/h 47 % 0 mm
12:05 27.1 °C 15.1 °C 1011.7 hPa WSW 10 km/h 20.4 km/h 48 % 0 mm
12:10 27.2 °C 15.2 °C 1011.4 hPa SW 10.8 km/h 18.5 km/h 48 % 0 mm
12:15 27.3 °C 15.3 °C 1011.4 hPa SW 10.1 km/h 18.5 km/h 48 % 0 mm
12:20 27.3 °C 15.1 °C 1011.1 hPa WSW 7.6 km/h 18.5 km/h 47 % 0 mm
12:25 27.3 °C 14.7 °C 1011.1 hPa WSW 11.7 km/h 20.4 km/h 46 % 0 mm
12:30 27.3 °C 14.7 °C 1010.7 hPa SW 6.4 km/h 11.1 km/h 46 % 0 mm
12:35 27.5 °C 14.8 °C 1010.7 hPa SW 11.3 km/h 27.4 km/h 46 % 0 mm
12:40 27.9 °C 14.5 °C 1010.7 hPa WSW 11.7 km/h 22.2 km/h 44 % 0 mm
12:45 28.2 °C 15.2 °C 1010.4 hPa West 6.9 km/h 13 km/h 45 % 0 mm
12:50 28.7 °C 15.2 °C 1010.4 hPa WSW 10.3 km/h 14.8 km/h 44 % 0 mm
12:55 28.9 °C 14.7 °C 1010.4 hPa WSW 8.7 km/h 24.1 km/h 42 % 0 mm
12:58 29.2 °C 14.9 °C 1010.4 hPa WSW 11.9 km/h 14.8 km/h 42 % 0 mm
13:03 29.5 °C 14.9 °C 1010.4 hPa SW 12.1 km/h 33.3 km/h 41 % 0 mm
13:08 29.6 °C 14.6 °C 1010 hPa West 15 km/h 20.4 km/h 40 % 0 mm
13:13 29.6 °C 13.8 °C 1010 hPa WSW 16.1 km/h 27.4 km/h 38 % 0 mm
13:18 29.7 °C 13.4 °C 1010 hPa West 10.1 km/h 31.5 km/h 37 % 0 mm
13:23 29.7 °C 13.4 °C 1009.7 hPa WNW 12.6 km/h 18.5 km/h 37 % 0 mm
13:28 29.7 °C 13 °C 1009.7 hPa SW 12.1 km/h 29.6 km/h 36 % 0 mm
13:33 29.6 °C 13.4 °C 1009.7 hPa WSW 12.6 km/h 16.7 km/h 37 % 0 mm
13:38 29.7 °C 13.1 °C 1009.7 hPa SW 15.1 km/h 29.6 km/h 36 % 0 mm
13:43 29.8 °C 12.7 °C 1009.7 hPa SW 15.3 km/h 29.6 km/h 35 % 0 mm
13:48 29.8 °C 13.6 °C 1009.4 hPa WNW 11.7 km/h 22.2 km/h 37 % 0 mm
13:53 29.9 °C 13.2 °C 1009.4 hPa WSW 14.8 km/h 14.8 km/h 36 % 0 mm
13:58 29.8 °C 13.2 °C 1009.4 hPa WSW 15 km/h 24.1 km/h 36 % 0 mm
14:03 29.9 °C 13.6 °C 1009 hPa WSW 12.4 km/h 18.5 km/h 37 % 0 mm
14:08 30.1 °C 13.3 °C 1009 hPa SW 9.7 km/h 22.2 km/h 36 % 0 mm
14:13 30.2 °C 13.4 °C 1009 hPa SW 11.6 km/h 29.6 km/h 36 % 0 mm
14:18 30.3 °C 13.1 °C 1009 hPa West 15.6 km/h 29.6 km/h 35 % 0 mm
14:23 30.3 °C 13.2 °C 1009 hPa WSW 6.9 km/h 27.8 km/h 35 % 0 mm
14:28 30.6 °C 13.8 °C 1008.7 hPa West 5.8 km/h 20.4 km/h 36 % 0 mm
14:33 30.6 °C 13.4 °C 1008.7 hPa WNW 8 km/h 24.1 km/h 35 % 0 mm
14:38 30.6 °C 13.4 °C 1008.7 hPa SW 8.5 km/h 24.1 km/h 35 % 0 mm
14:43 30.6 °C 13.3 °C 1008.7 hPa WSW 6.4 km/h 11.1 km/h 35 % 0 mm
14:48 30.6 °C 13.3 °C 1008.7 hPa WNW 9 km/h 17.7 km/h 35 % 0 mm
14:53 30.6 °C 13.8 °C 1008.4 hPa SW 10.9 km/h 14.8 km/h 36 % 0 mm
14:58 30.4 °C 13.7 °C 1008.4 hPa WSW 11.6 km/h 19.3 km/h 36 % 0 mm
15:03 30.4 °C 13.7 °C 1008 hPa WSW 13 km/h 31.5 km/h 36 % 0 mm
15:08 30.5 °C 14.2 °C 1008 hPa SW 18 km/h 25.9 km/h 37 % 0 mm
15:13 30.6 °C 15.1 °C 1008 hPa SSW 12.6 km/h 16.7 km/h 39 % 0 mm
15:18 30.7 °C 15.5 °C 1008 hPa SSW 14.8 km/h 29.6 km/h 40 % 0 mm
15:23 30.7 °C 15.1 °C 1007.7 hPa South 12.1 km/h 22.2 km/h 39 % 0 mm
15:28 30.4 °C 15.3 °C 1007.7 hPa SSW 9 km/h 14.8 km/h 40 % 0 mm
15:33 30.4 °C 14.9 °C 1007.7 hPa South 12.2 km/h 18.5 km/h 39 % 0 mm
15:39 30.2 °C 15.5 °C 1007.3 hPa SSW 11.7 km/h 19.3 km/h 41 % 0 mm
15:44 29.9 °C 14.8 °C 1007.3 hPa SSW 6.4 km/h 9.3 km/h 40 % 0 mm
15:49 29.7 °C 15.4 °C 1007.3 hPa WSW 7.1 km/h 11.3 km/h 42 % 0 mm
15:54 29.6 °C 14.6 °C 1007.3 hPa SSW 15.3 km/h 24.1 km/h 40 % 0 mm
15:59 29.3 °C 14.7 °C 1007.3 hPa SSW 15.6 km/h 25.9 km/h 41 % 0 mm
16:04 29 °C 14.4 °C 1007.3 hPa SSW 13.7 km/h 22.2 km/h 41 % 0 mm
16:09 28.8 °C 14.6 °C 1007.3 hPa SSW 4.8 km/h 7.4 km/h 42 % 0 mm
16:14 28.6 °C 14.4 °C 1007.3 hPa SW 11.7 km/h 18.5 km/h 42 % 0 mm
16:19 28.4 °C 14.3 °C 1007.3 hPa SSW 10.9 km/h 16.7 km/h 42 % 0 mm
16:24 28.2 °C 14.1 °C 1007.3 hPa WSW 7.6 km/h 11.3 km/h 42 % 0 mm
16:29 28.1 °C 13.2 °C 1007.3 hPa SW 12.1 km/h 18.5 km/h 40 % 0 mm
16:34 27.9 °C 13.1 °C 1007.3 hPa WSW 8 km/h 18.5 km/h 40 % 0 mm
16:39 27.6 °C 13.8 °C 1007.3 hPa SW 9 km/h 17.7 km/h 43 % 0 mm
16:44 27.3 °C 13.3 °C 1007.3 hPa SW 14.5 km/h 22.2 km/h 42 % 0 mm
16:49 27.2 °C 13.6 °C 1007.3 hPa WSW 10.3 km/h 20.4 km/h 43 % 0 mm
16:54 27.3 °C 13.7 °C 1007.3 hPa SSW 8.4 km/h 24.1 km/h 43 % 0 mm
16:59 27.3 °C 14 °C 1007 hPa SW 8.5 km/h 14.8 km/h 44 % 0 mm
17:04 27.4 °C 13.7 °C 1007 hPa West 6.3 km/h 14.8 km/h 43 % 0 mm
17:09 27.4 °C 14.1 °C 1007.3 hPa WSW 6.3 km/h 11.1 km/h 44 % 0 mm
17:14 27.3 °C 14 °C 1007.3 hPa West 5.6 km/h 14.8 km/h 44 % 0 mm
17:19 27.3 °C 13.9 °C 1007.3 hPa WSW 7.9 km/h 9.7 km/h 44 % 0 mm
17:24 27.1 °C 13.8 °C 1007.3 hPa SW 9 km/h 16.7 km/h 44 % 0 mm
17:29 26.8 °C 13.8 °C 1007 hPa SW 9.2 km/h 24.1 km/h 45 % 0 mm
17:34 26.7 °C 14.1 °C 1007 hPa South 6.6 km/h 13 km/h 46 % 0 mm
17:39 26.7 °C 14.1 °C 1006.7 hPa WSW 8.2 km/h 18.5 km/h 46 % 0 mm
17:44 26.8 °C 14.6 °C 1006.7 hPa SW 8.7 km/h 14.8 km/h 47 % 0 mm
17:49 26.9 °C 14.3 °C 1006.7 hPa WSW 4.5 km/h 11.1 km/h 46 % 0 mm
17:54 27.1 °C 14.4 °C 1006.7 hPa SSW 1.8 km/h 6.4 km/h 46 % 0 mm
17:59 27.1 °C 14.4 °C 1006.7 hPa SSW 4.8 km/h 9.3 km/h 46 % 0 mm
18:04 27.1 °C 14.4 °C 1006.7 hPa SW 4.5 km/h 14.8 km/h 46 % 0 mm
18:09 27 °C 14.4 °C 1006.7 hPa SW 10 km/h 18.5 km/h 46 % 0 mm
18:14 26.9 °C 14 °C 1006.7 hPa SW 7.9 km/h 11.1 km/h 45 % 0 mm
18:19 26.9 °C 13.9 °C 1006.7 hPa SSW 8.5 km/h 14.8 km/h 45 % 0 mm
18:24 26.8 °C 14.2 °C 1006.7 hPa SSW 6.4 km/h 11.1 km/h 46 % 0 mm
18:29 26.8 °C 14.2 °C 1006.3 hPa SSW 8.2 km/h 11.3 km/h 46 % 0 mm
18:34 26.7 °C 14.1 °C 1006.3 hPa SSW 8.2 km/h 13 km/h 46 % 0 mm
18:39 26.6 °C 14 °C 1006 hPa SSW 11.7 km/h 14.8 km/h 46 % 0 mm
18:44 26.5 °C 14.3 °C 1006 hPa WSW 11.7 km/h 18.5 km/h 47 % 0 mm
18:49 26.4 °C 14.2 °C 1006 hPa South 13.4 km/h 20.4 km/h 47 % 0 mm
18:55 26.3 °C 14.4 °C 1006 hPa SSW 8.2 km/h 14.8 km/h 48 % 0 mm
19:00 26.3 °C 14.7 °C 1006 hPa SSW 6.8 km/h 11.1 km/h 49 % 0 mm
19:05 26.2 °C 14.6 °C 1006 hPa SSW 9.7 km/h 14.8 km/h 49 % 0 mm
19:10 26.1 °C 14.8 °C 1006.3 hPa South 6.4 km/h 9.7 km/h 50 % 0 mm
19:15 25.8 °C 15.2 °C 1006 hPa South 8.5 km/h 16.7 km/h 52 % 0 mm
19:20 25.6 °C 15.3 °C 1006 hPa SSW 3.7 km/h 8 km/h 53 % 0 mm
19:25 25.3 °C 15.3 °C 1006.3 hPa SSW 10.8 km/h 19.3 km/h 54 % 0 mm
19:30 25.1 °C 15.4 °C 1006.3 hPa SSE 7.9 km/h 14.8 km/h 55 % 0 mm
19:35 24.8 °C 15.1 °C 1006.3 hPa SW 9.7 km/h 14.5 km/h 55 % 0 mm
19:40 24.5 °C 14.9 °C 1006.3 hPa SSW 13 km/h 18.5 km/h 55 % 0 mm
19:45 24.3 °C 14.7 °C 1006.3 hPa SSW 10 km/h 18.5 km/h 55 % 0 mm
19:50 24.1 °C 14.5 °C 1006.7 hPa South 5.5 km/h 16.7 km/h 55 % 0 mm
19:55 24 °C 14.4 °C 1006.7 hPa SSW 9.8 km/h 20.4 km/h 55 % 0 mm
20:00 23.8 °C 14.2 °C 1006.7 hPa SSW 12.6 km/h 20.4 km/h 55 % 0 mm
20:05 23.7 °C 14.2 °C 1006.7 hPa WSW 7.2 km/h 14.8 km/h 55 % 0 mm
20:10 23.6 °C 14 °C 1006.7 hPa SSW 8 km/h 11.1 km/h 55 % 0 mm
20:15 23.4 °C 13.9 °C 1007 hPa South 2.6 km/h 7.4 km/h 55 % 0 mm
20:20 23.3 °C 13.8 °C 1007 hPa SW 7.7 km/h 9.7 km/h 55 % 0 mm
20:25 23.3 °C 14 °C 1007 hPa SW 6.9 km/h 11.3 km/h 56 % 0 mm
20:30 23.2 °C 13.9 °C 1007 hPa SW 3.5 km/h 9.3 km/h 56 % 0 mm
20:35 23.2 °C 13.9 °C 1007 hPa SSW 3.1 km/h 7.4 km/h 56 % 0 mm
20:40 23.1 °C 13.8 °C 1007.3 hPa SSW 2.7 km/h 11.1 km/h 56 % 0 mm
20:45 23.2 °C 13.9 °C 1008.4 hPa NNW 5.5 km/h 8 km/h 56 % 0 mm
20:50 22.9 °C 12.8 °C 1008.4 hPa NNW 11.3 km/h 18.5 km/h 53 % 0 mm
20:55 22.6 °C 13.9 °C 1008.7 hPa WNW 6.6 km/h 16.7 km/h 58 % 0 mm
21:00 22.3 °C 14.2 °C 1009 hPa North 7.6 km/h 16.7 km/h 60 % 0 mm
21:05 22.1 °C 14.4 °C 1009 hPa WNW 3.4 km/h 7.4 km/h 62 % 0 mm
21:10 21.9 °C 14.6 °C 1009.4 hPa WNW 2.7 km/h 5.6 km/h 63 % 0 mm
21:15 21.7 °C 14.6 °C 1009.4 hPa West 2.4 km/h 7.4 km/h 64 % 0 mm
21:20 21.5 °C 14.7 °C 1009.7 hPa West 4 km/h 5.6 km/h 65 % 0 mm
21:22 21.3 °C 14.5 °C 1009.7 hPa West 1.4 km/h 7.4 km/h 65 % 0 mm
21:27 21.1 °C 14.9 °C 1009.7 hPa West 4.2 km/h 9.3 km/h 68 % 0 mm
21:32 20.9 °C 15 °C 1009.7 hPa WNW 2.3 km/h 5.6 km/h 69 % 0 mm
21:37 20.8 °C 15.1 °C 1009.7 hPa West 2.4 km/h 5.6 km/h 70 % 0 mm
21:43 20.7 °C 15.2 °C 1010 hPa WNW 5 km/h 8 km/h 71 % 0 mm
21:48 20.6 °C 15.6 °C 1010 hPa SW 7.6 km/h 9.3 km/h 73 % 0 mm
21:53 20.6 °C 15.6 °C 1010 hPa WSW 6.8 km/h 11.1 km/h 73 % 0 mm
21:57 20.6 °C 15.3 °C 1009.7 hPa West 9.2 km/h 14.8 km/h 72 % 0 mm
22:02 20.4 °C 15 °C 1010 hPa WNW 6.3 km/h 12.9 km/h 71 % 0 mm
22:08 20.4 °C 14.9 °C 1010 hPa WSW 8.7 km/h 13 km/h 71 % 0 mm
22:13 20.3 °C 14.9 °C 1009.7 hPa West 9.2 km/h 14.8 km/h 71 % 0 mm
22:18 20.3 °C 15.3 °C 1009.7 hPa WNW 3.5 km/h 14.5 km/h 73 % 0 mm
22:23 20.2 °C 15.2 °C 1009.7 hPa West 6.6 km/h 11.1 km/h 73 % 0 mm
22:28 20.1 °C 15.3 °C 1009.4 hPa WNW 4.5 km/h 13 km/h 74 % 0 mm
22:33 19.9 °C 15.2 °C 1009.4 hPa WNW 8.7 km/h 13 km/h 74 % 0 mm
22:37 19.8 °C 15.2 °C 1009.4 hPa WSW 6.6 km/h 11.3 km/h 75 % 0 mm
22:42 19.7 °C 15.2 °C 1009 hPa SW 3.5 km/h 6.4 km/h 75 % 0 mm
22:47 19.6 °C 14.8 °C 1009 hPa SW 4.2 km/h 13 km/h 74 % 0 mm
22:53 19.5 °C 14.9 °C 1009 hPa WSW 2.1 km/h 5.6 km/h 75 % 0 mm
22:57 19.4 °C 14.7 °C 1009 hPa WSW 3.1 km/h 14.8 km/h 74 % 0 mm
23:03 19.3 °C 14.6 °C 1009 hPa WSW 4.2 km/h 11.1 km/h 74 % 0 mm
23:08 19.3 °C 14.7 °C 1009 hPa WSW 5 km/h 9.7 km/h 75 % 0 mm
23:13 19.2 °C 14.7 °C 1009 hPa SSW 5.1 km/h 9.7 km/h 75 % 0 mm
23:18 19.2 °C 14.6 °C 1009 hPa SSW 3.2 km/h 11.1 km/h 75 % 0 mm
23:23 19.2 °C 14.6 °C 1009 hPa West 3.5 km/h 13 km/h 75 % 0 mm
23:28 19.2 °C 14.7 °C 1008.7 hPa WNW 3.2 km/h 5.6 km/h 75 % 0 mm
23:33 19.2 °C 14.7 °C 1008.7 hPa WSW 2.1 km/h 6.4 km/h 75 % 0 mm
23:38 19.2 °C 14.7 °C 1008.7 hPa SW 3.2 km/h 7.4 km/h 75 % 0 mm
23:43 19.2 °C 14.7 °C 1008.7 hPa SW 5 km/h 6.4 km/h 75 % 0 mm
23:48 19.2 °C 14.7 °C 1008.7 hPa SW 3.9 km/h 5.6 km/h 75 % 0 mm
23:53 19.2 °C 14.7 °C 1008.7 hPa SW 3.4 km/h 5.6 km/h 75 % 0 mm
23:58 19.2 °C 14.6 °C 1008.7 hPa SW 3.9 km/h 5.6 km/h 75 % 0 mm
Crab Meadow Weather
Compliments of Weather Underground - 3 mb

Script developed by  Jim McMurry - jmcmurry@mwt.net Adapted for the template by  Wim van der Kuil - Leuven-Template.eu

Astronomy: It takes 16 million horsepower to break loose from the Earth's gravitational pull.